الصفحة الرئيسية
METAR-TAF:

METAR-TAF

مطار :

فونشال, جزر ماديرا, البرتغال

مطار كريستيانو رونالدو

دائرة عرض: 32-41-52N, خط طول: 016-46-28W, ارتفاع: 59 متر

مراقبة الطقس الحالي

تاريخ ووقت الإصدار 15 دقيقة قبل الساعة 03:30UTC
ريح 15 عقدة من الشمال, الاتجاه يتراوح بين الشمال الغربي و الشمال/الشمال الشرقي
درجة الحرارة 16°درجة مئوية
الرطوبة 68%
ضغط 1026 hPa
الرؤية 10 كم أو أكثر
غيوم متفرقة على ارتفاع 1600 قدم

METAR: LPMA 190330Z 35015KT 310V020 9999 SCT016 16/10 Q1026

زمن: 03:45 (03:45 UTC)

توقعات

تاريخ ووقت الإصدار 4ساعات و 45 دقيقة قبل الساعة 23:00UTC
التوقعات صالحة من19 الساعة 00 UTC إلى 19 الساعة 24 UTC
ريح 13 عقدة من الشمال
الرؤية 10 كم أو أكثر
غيوم متفرقة على ارتفاع 1500 قدم
مؤقت
من 19 الساعة 00 UTC إلى 19 الساعة 12 UTC
ريح 18 عقدة من الشمال تتزايد حتى 28 عقدة
نظرية الاحتمالات 30% :
مؤقت
من 19 الساعة 00 UTC إلى 19 الساعة 09 UTC
ريح 5 عقدةمن اتجاهات متغيرة

TAF: LPMA 182300Z 1900/1924 36013KT 9999 SCT015 TEMPO 1900/1912 36018G28KT PROB30 TEMPO 1900/1909 VRB05KT

أرصاد الطقس والتوقعات من أكثر من 4000 مطار (تقارير الطقس للمطار METAR والتنبؤ بالطقس بالمطارTAF).

المحطات المتاحة هي النقط الصفراء والحمراء على الخريطة.

حرك المؤشر فوق النقطة لمعرفة اسم المحطة.

ثم انقر لمعرفة أرصاد وتوقعات الطقس.

لتغيير الخارطة: اضغط على الأزرار الخضراء مع رمز الصليب الأسود للتكبير. على الزر الأخضر مع شرطة للتصغير، أو على الأسهم الخضراء للخرائط المجاورة.


METAR-TAF: